Ferrin, Illinois
Current Conditions -  °F | °C
As of 3:55 AM on Monday 22 Dec 2014 (Local Time) from KENL Reporting Station
Overcast Overcast  
Wind Chill: 33°   Ceiling: 6000
Heat Index: 38°   Visibility: 10mi
Dew Point: 30°   Wind: 6mph
Humidity: 74%   Direction: 120°ESE
Pressure: 29.89"   Gusts: NA
Location:  38.5905°N, 89.3709°W
Report Text: KENL 220955Z AUTO 12005KT 10SM OVC060 03/M01 A2989 RMK AO2 T00321010
Loading
Personal Weather Stations






























Interactive Weather Map New forecast layout! Learn more

10-Day Weather Forecast

Advertisements
Track Severe Weather on mobile